createdAt,value
2023-03-21T00:02:34.482Z,11.13
2023-03-21T00:05:20.924Z,11.17
2023-03-21T00:08:06.908Z,11.15
2023-03-21T00:11:04.463Z,11.14
2023-03-21T00:13:50.618Z,11.12
2023-03-21T00:16:37.754Z,11.12
2023-03-21T00:19:26.551Z,11.13
2023-03-21T00:22:12.280Z,11.15
2023-03-21T00:24:58.062Z,11.17
2023-03-21T00:28:01.173Z,11.20
2023-03-21T00:30:59.321Z,11.21
2023-03-21T00:33:45.471Z,11.27
2023-03-21T00:36:32.160Z,11.30
2023-03-21T00:39:18.570Z,11.31
2023-03-21T00:42:04.601Z,11.29
2023-03-21T00:44:50.788Z,11.28
2023-03-21T00:47:37.927Z,11.25
2023-03-21T00:50:28.135Z,11.21
2023-03-21T00:53:15.319Z,11.18
2023-03-21T00:56:01.058Z,11.15
2023-03-21T00:58:46.842Z,11.16
2023-03-21T01:01:35.547Z,11.13
2023-03-21T01:04:27.029Z,11.14
2023-03-21T01:07:12.712Z,11.10
2023-03-21T01:09:58.519Z,11.11
2023-03-21T01:12:47.839Z,11.12
2023-03-21T01:15:37.853Z,11.11
2023-03-21T01:18:28.303Z,11.10
2023-03-21T01:21:14.681Z,11.09
2023-03-21T01:24:01.761Z,11.10
2023-03-21T01:26:48.263Z,11.05
2023-03-21T01:29:34.075Z,11.04
2023-03-21T01:32:19.817Z,10.98
2023-03-21T01:35:06.965Z,10.94
2023-03-21T01:37:59.800Z,10.89
2023-03-21T01:40:49.825Z,10.93
2023-03-21T01:43:41.660Z,10.90
2023-03-21T01:46:51.555Z,10.90
2023-03-21T01:50:14.778Z,10.91
2023-03-21T01:53:22.763Z,10.85
2023-03-21T01:56:12.866Z,10.85
2023-03-21T01:59:32.168Z,10.82
2023-03-21T02:02:25.453Z,10.83
2023-03-21T02:06:01.631Z,10.82
2023-03-21T02:08:53.960Z,10.83
2023-03-21T02:11:39.836Z,10.82
2023-03-21T02:14:29.401Z,10.75
2023-03-21T02:17:42.441Z,10.67
2023-03-21T02:21:01.370Z,10.63
2023-03-21T02:24:37.893Z,10.64
2023-03-21T02:27:25.220Z,10.66
2023-03-21T02:30:49.098Z,10.70
2023-03-21T02:34:01.639Z,10.73
2023-03-21T02:37:08.035Z,10.75
2023-03-21T02:40:09.381Z,10.78
2023-03-21T02:43:01.213Z,10.77
2023-03-21T02:45:56.997Z,10.75
2023-03-21T02:49:11.224Z,10.68
2023-03-21T02:52:12.252Z,10.65
2023-03-21T02:55:01.434Z,10.60
2023-03-21T02:57:56.508Z,10.56
2023-03-21T03:00:44.206Z,10.54
2023-03-21T03:03:34.776Z,10.54
2023-03-21T03:06:44.379Z,10.54
2023-03-21T03:09:30.483Z,10.54
2023-03-21T03:12:43.454Z,10.51
2023-03-21T03:15:33.497Z,10.54
2023-03-21T03:18:43.456Z,10.52
2023-03-21T03:21:48.902Z,10.55
2023-03-21T03:24:43.274Z,10.57
2023-03-21T03:27:41.878Z,10.56
2023-03-21T03:30:39.250Z,10.62
2023-03-21T03:33:29.258Z,10.59
2023-03-21T03:36:33.617Z,10.61
2023-03-21T03:39:30.063Z,10.58
2023-03-21T03:42:27.965Z,10.60
2023-03-21T03:45:35.546Z,10.58
2023-03-21T03:48:26.991Z,10.57
2023-03-21T03:51:51.797Z,10.60
2023-03-21T03:54:58.648Z,10.54
2023-03-21T03:57:45.307Z,10.58
2023-03-21T04:00:34.841Z,10.54
2023-03-21T04:03:22.100Z,10.55
2023-03-21T04:06:08.740Z,10.53
2023-03-21T04:08:56.559Z,10.53
2023-03-21T04:11:42.444Z,10.53
2023-03-21T04:14:35.620Z,10.49
2023-03-21T04:17:26.532Z,10.52
2023-03-21T04:20:20.681Z,10.49
2023-03-21T04:23:19.008Z,10.47
2023-03-21T04:26:06.660Z,10.44
2023-03-21T04:28:56.584Z,10.38
2023-03-21T04:31:42.272Z,10.41
2023-03-21T04:34:31.364Z,10.39
2023-03-21T04:37:23.690Z,10.40
2023-03-21T04:40:11.614Z,10.40
2023-03-21T04:42:57.235Z,10.44
2023-03-21T04:45:43.461Z,10.42
2023-03-21T04:48:29.556Z,10.44
2023-03-21T04:51:17.725Z,10.42
2023-03-21T04:54:04.087Z,10.42
2023-03-21T04:56:52.186Z,10.46
2023-03-21T04:59:38.189Z,10.42
2023-03-21T05:02:23.939Z,10.40
2023-03-21T05:05:11.926Z,10.38
2023-03-21T05:07:57.899Z,10.42
2023-03-21T05:10:43.620Z,10.44
2023-03-21T05:13:29.951Z,10.45
2023-03-21T05:16:15.895Z,10.42
2023-03-21T05:19:03.997Z,10.47
2023-03-21T05:21:53.190Z,10.47
2023-03-21T05:24:42.244Z,10.48
2023-03-21T05:27:36.175Z,10.46
2023-03-21T05:30:29.425Z,10.49
2023-03-21T05:33:17.978Z,10.51
2023-03-21T05:36:03.930Z,10.48
2023-03-21T05:38:51.440Z,10.46
2023-03-21T05:41:37.413Z,10.49
2023-03-21T05:44:24.842Z,10.49
2023-03-21T05:47:11.565Z,10.55
2023-03-21T05:50:04.019Z,10.60
2023-03-21T05:52:51.560Z,10.63
2023-03-21T05:55:39.005Z,10.63
2023-03-21T05:58:29.578Z,10.62
2023-03-21T06:01:15.428Z,10.65
2023-03-21T06:04:08.479Z,10.69
2023-03-21T06:06:55.471Z,10.70
2023-03-21T06:09:42.345Z,10.76
2023-03-21T06:12:28.066Z,10.83
2023-03-21T06:15:44.289Z,10.93
2023-03-21T06:18:37.792Z,11.01
2023-03-21T06:21:53.967Z,11.05
2023-03-21T06:24:40.677Z,11.15
2023-03-21T06:27:26.652Z,11.21
2023-03-21T06:30:14.724Z,11.30
2023-03-21T06:33:12.467Z,11.38
2023-03-21T06:35:58.867Z,11.45
2023-03-21T06:38:45.119Z,11.50
2023-03-21T06:41:31.115Z,11.61
2023-03-21T06:44:24.471Z,11.70
2023-03-21T06:47:17.756Z,11.77
2023-03-21T06:50:07.111Z,11.83
2023-03-21T06:52:59.484Z,11.87
2023-03-21T06:55:51.783Z,11.93
2023-03-21T06:58:39.141Z,11.96
2023-03-21T07:01:31.653Z,12.03
2023-03-21T07:04:24.701Z,12.10
2023-03-21T07:07:11.624Z,12.13
2023-03-21T07:09:57.806Z,12.18
2023-03-21T07:12:45.804Z,12.25
2023-03-21T07:15:53.509Z,12.31
2023-03-21T07:18:39.153Z,12.33
2023-03-21T07:21:25.155Z,12.32
2023-03-21T07:24:12.021Z,12.34
2023-03-21T07:26:57.647Z,12.48
2023-03-21T07:29:44.528Z,12.51
2023-03-21T07:32:33.963Z,12.59
2023-03-21T07:35:19.953Z,12.65
2023-03-21T07:38:06.486Z,12.70
2023-03-21T07:40:52.248Z,12.76
2023-03-21T07:43:39.300Z,12.84
2023-03-21T07:46:28.797Z,12.91
2023-03-21T07:49:14.420Z,13.02
2023-03-21T07:52:04.597Z,13.12
2023-03-21T07:54:50.688Z,13.21
2023-03-21T07:57:36.676Z,13.30
2023-03-21T08:00:23.183Z,13.39
2023-03-21T08:03:09.939Z,13.49
2023-03-21T08:05:56.019Z,13.59
2023-03-21T08:08:41.895Z,13.67
2023-03-21T08:11:31.441Z,13.74
2023-03-21T08:14:17.555Z,13.80
2023-03-21T08:17:07.099Z,13.85
2023-03-21T08:19:52.647Z,13.81
2023-03-21T08:22:38.505Z,13.89
2023-03-21T08:25:24.789Z,13.91
2023-03-21T08:28:10.414Z,13.95
2023-03-21T08:30:56.216Z,14.01
2023-03-21T08:33:42.284Z,14.00
2023-03-21T08:36:28.153Z,14.05
2023-03-21T08:39:14.213Z,14.04
2023-03-21T08:42:00.392Z,14.11
2023-03-21T08:44:46.685Z,14.11
2023-03-21T08:47:33.185Z,14.20
2023-03-21T08:50:21.693Z,14.29
2023-03-21T08:53:07.681Z,14.36
2023-03-21T08:55:53.470Z,14.43
2023-03-21T08:58:39.185Z,14.53
2023-03-21T09:01:26.364Z,14.61
2023-03-21T09:04:12.658Z,14.71
2023-03-21T09:07:01.545Z,14.80
2023-03-21T09:09:53.412Z,14.86
2023-03-21T09:12:44.402Z,14.94
2023-03-21T09:15:30.253Z,14.99
2023-03-21T09:18:18.158Z,15.08
2023-03-21T09:21:13.901Z,15.16
2023-03-21T09:24:00.760Z,15.22
2023-03-21T09:26:46.610Z,15.29
2023-03-21T09:29:33.996Z,15.37
2023-03-21T09:32:20.341Z,15.42
2023-03-21T09:35:07.191Z,15.47
2023-03-21T09:37:53.257Z,15.50
2023-03-21T09:41:01.064Z,15.57
2023-03-21T09:44:15.064Z,15.62
2023-03-21T09:47:20.796Z,15.64
2023-03-21T09:50:20.512Z,15.76
2023-03-21T09:53:06.351Z,15.87
2023-03-21T09:55:54.063Z,15.97
2023-03-21T09:58:44.729Z,16.08
2023-03-21T10:01:41.784Z,16.24
2023-03-21T10:04:27.746Z,16.35
2023-03-21T10:07:18.979Z,16.47
2023-03-21T10:10:06.367Z,16.56
2023-03-21T10:12:53.335Z,16.64
2023-03-21T10:15:39.498Z,16.72
2023-03-21T10:18:28.312Z,16.81
2023-03-21T10:21:47.419Z,16.84
2023-03-21T10:24:30.124Z,16.89
2023-03-21T10:27:16.489Z,16.91
2023-03-21T10:30:02.464Z,16.94
2023-03-21T10:32:48.487Z,16.98
2023-03-21T10:35:37.447Z,17.08
2023-03-21T10:38:25.478Z,17.20
2023-03-21T10:41:14.254Z,17.34
2023-03-21T10:44:15.422Z,17.44
2023-03-21T10:47:08.958Z,17.55
2023-03-21T10:50:07.177Z,17.53
2023-03-21T10:53:00.530Z,17.54
2023-03-21T10:55:49.265Z,17.50
2023-03-21T10:58:39.672Z,17.38
2023-03-21T11:01:44.093Z,17.28
2023-03-21T11:04:36.145Z,17.15
2023-03-21T11:07:24.351Z,17.03
2023-03-21T11:10:35.048Z,16.91
2023-03-21T11:13:26.795Z,16.80
2023-03-21T11:16:24.488Z,16.72
2023-03-21T11:19:19.104Z,16.71
2023-03-21T11:22:07.482Z,16.68
2023-03-21T11:24:59.132Z,16.67
2023-03-21T11:27:50.582Z,16.61
2023-03-21T11:30:36.385Z,16.60
2023-03-21T11:33:24.397Z,16.56
2023-03-21T11:36:19.417Z,16.50
2023-03-21T11:39:11.158Z,16.51
2023-03-21T11:41:56.842Z,16.48
2023-03-21T11:44:44.206Z,16.48
2023-03-21T11:47:31.643Z,16.46
2023-03-21T11:50:37.135Z,16.42
2023-03-21T11:53:46.657Z,16.34
2023-03-21T11:56:36.883Z,16.29
2023-03-21T11:59:35.665Z,16.23
2023-03-21T12:02:55.966Z,16.16
2023-03-21T12:05:54.870Z,16.11
2023-03-21T12:09:02.406Z,16.09
2023-03-21T12:12:10.027Z,16.02
2023-03-21T12:15:20.575Z,15.97
2023-03-21T12:18:10.349Z,15.96
2023-03-21T12:21:04.280Z,15.94
2023-03-21T12:24:01.215Z,15.94
2023-03-21T12:26:58.784Z,15.98
2023-03-21T12:29:53.915Z,16.02
2023-03-21T12:32:49.876Z,16.06
2023-03-21T12:35:47.984Z,16.09
2023-03-21T12:39:09.130Z,16.10
2023-03-21T12:42:09.684Z,16.14
2023-03-21T12:45:17.205Z,16.19
2023-03-21T12:48:21.199Z,16.26
2023-03-21T12:51:08.792Z,16.32
2023-03-21T12:54:10.792Z,16.39
2023-03-21T12:57:15.685Z,16.43
2023-03-21T13:00:15.919Z,16.46
2023-03-21T13:03:12.096Z,16.46
2023-03-21T13:06:03.739Z,16.48
2023-03-21T13:09:08.098Z,16.53
2023-03-21T13:11:57.108Z,16.56
2023-03-21T13:14:57.023Z,16.54
2023-03-21T13:17:49.442Z,16.54
2023-03-21T13:20:46.825Z,16.55
2023-03-21T13:23:37.098Z,16.56
2023-03-21T13:26:39.480Z,16.53
2023-03-21T13:29:35.254Z,16.61
2023-03-21T13:32:39.198Z,16.64
2023-03-21T13:35:38.564Z,16.67
2023-03-21T13:38:30.492Z,16.71
2023-03-21T13:41:23.658Z,16.73
2023-03-21T13:44:22.257Z,16.77
2023-03-21T13:47:34.969Z,16.77
2023-03-21T13:50:30.474Z,16.77
2023-03-21T13:53:16.696Z,16.73
2023-03-21T13:56:14.887Z,16.70
2023-03-21T13:59:03.985Z,16.64
2023-03-21T14:02:23.761Z,16.63
2023-03-21T14:05:22.858Z,16.61
2023-03-21T14:08:21.558Z,16.60
2023-03-21T14:11:17.449Z,16.56
2023-03-21T14:14:04.363Z,16.53
2023-03-21T14:16:53.130Z,16.53
2023-03-21T14:19:39.859Z,16.55
2023-03-21T14:22:27.588Z,16.54
2023-03-21T14:25:16.730Z,16.46
2023-03-21T14:28:05.915Z,16.52
2023-03-21T14:30:54.470Z,16.48
2023-03-21T14:33:41.778Z,16.44
2023-03-21T14:36:30.782Z,16.38
2023-03-21T14:39:53.425Z,16.34
2023-03-21T14:42:39.471Z,16.27
2023-03-21T14:45:29.124Z,16.28
2023-03-21T14:48:17.078Z,16.22
2023-03-21T14:51:05.563Z,16.15
2023-03-21T14:53:51.300Z,16.07
2023-03-21T14:56:38.483Z,15.94
2023-03-21T14:59:26.483Z,15.96
2023-03-21T15:02:18.461Z,15.88
2023-03-21T15:05:37.835Z,15.87
2023-03-21T15:08:26.396Z,15.87
2023-03-21T15:11:13.020Z,15.82
2023-03-21T15:14:15.050Z,15.86
2023-03-21T15:17:04.085Z,15.81
2023-03-21T15:19:50.408Z,15.85
2023-03-21T15:22:39.612Z,15.81
2023-03-21T15:25:32.728Z,15.75
2023-03-21T15:28:19.003Z,15.76
2023-03-21T15:31:07.145Z,15.73
2023-03-21T15:33:53.834Z,15.67
2023-03-21T15:36:46.465Z,15.67
2023-03-21T15:39:52.672Z,15.64
2023-03-21T15:42:41.009Z,15.58
2023-03-21T15:45:30.684Z,15.55
2023-03-21T15:48:17.351Z,15.52
2023-03-21T15:51:05.462Z,15.50
2023-03-21T15:53:54.319Z,15.43
2023-03-21T15:56:42.481Z,15.39
2023-03-21T15:59:32.548Z,15.38
2023-03-21T16:02:22.144Z,15.35
2023-03-21T16:05:29.197Z,15.21
2023-03-21T16:08:22.486Z,15.21
2023-03-21T16:11:24.456Z,15.20
2023-03-21T16:14:10.856Z,15.19
2023-03-21T16:16:59.092Z,15.20
2023-03-21T16:19:45.012Z,15.19
2023-03-21T16:22:34.901Z,15.17
2023-03-21T16:25:20.876Z,15.15
2023-03-21T16:28:13.854Z,15.14
2023-03-21T16:30:59.560Z,15.10
2023-03-21T16:33:45.941Z,15.11
2023-03-21T16:36:36.353Z,15.08
2023-03-21T16:39:24.749Z,15.05
2023-03-21T16:42:12.248Z,15.00
2023-03-21T16:44:58.074Z,15.00
2023-03-21T16:47:44.868Z,14.98
2023-03-21T16:50:37.071Z,14.98
2023-03-21T16:53:22.814Z,14.92
2023-03-21T16:56:55.092Z,14.92
2023-03-21T16:59:44.715Z,14.91
2023-03-21T17:02:30.753Z,14.86
2023-03-21T17:05:16.846Z,14.82
2023-03-21T17:08:02.951Z,14.80
2023-03-21T17:10:48.930Z,14.78
2023-03-21T17:13:35.338Z,14.77
2023-03-21T17:16:26.694Z,14.75
2023-03-21T17:19:24.036Z,14.71
2023-03-21T17:22:11.396Z,14.69
2023-03-21T17:24:58.868Z,14.66
2023-03-21T17:27:45.064Z,14.65
2023-03-21T17:30:33.802Z,14.61
2023-03-21T17:33:19.709Z,14.60
2023-03-21T17:36:05.998Z,14.60
2023-03-21T17:38:52.985Z,14.55
2023-03-21T17:41:38.932Z,14.51
2023-03-21T17:44:25.085Z,14.47
2023-03-21T17:47:11.416Z,14.48
2023-03-21T17:49:57.817Z,14.47
2023-03-21T17:52:43.940Z,14.46
2023-03-21T17:55:30.309Z,14.44
2023-03-21T17:58:17.835Z,14.43
2023-03-21T18:01:03.671Z,14.42
2023-03-21T18:03:50.937Z,14.42
2023-03-21T18:06:37.541Z,14.39
2023-03-21T18:09:23.583Z,14.39
2023-03-21T18:12:09.774Z,14.36
2023-03-21T18:14:56.132Z,14.35
2023-03-21T18:17:42.248Z,14.33
2023-03-21T18:20:49.844Z,14.32
2023-03-21T18:23:34.955Z,14.30
2023-03-21T18:26:23.970Z,14.25
2023-03-21T18:32:17.304Z,14.26
2023-03-21T18:35:04.890Z,14.28
2023-03-21T18:37:50.972Z,14.29
2023-03-21T18:40:37.315Z,14.32
2023-03-21T18:46:30.562Z,14.31
2023-03-21T18:52:24.061Z,14.27
2023-03-21T18:55:10.554Z,14.21
2023-03-21T18:57:56.448Z,14.21
2023-03-21T19:00:43.790Z,14.20
2023-03-21T19:03:37.092Z,14.16
2023-03-21T19:06:25.336Z,14.12
2023-03-21T19:09:14.305Z,14.11
2023-03-21T19:12:02.011Z,14.08
2023-03-21T19:14:50.650Z,14.06
2023-03-21T19:18:23.264Z,14.04
2023-03-21T19:20:44.759Z,14.01
2023-03-21T19:23:43.551Z,13.98
2023-03-21T19:26:37.663Z,13.96
2023-03-21T19:29:23.365Z,13.94
2023-03-21T19:32:09.418Z,13.91
2023-03-21T19:34:55.438Z,13.87
2023-03-21T19:37:41.730Z,13.87
2023-03-21T19:40:28.033Z,13.83
2023-03-21T19:43:32.101Z,13.74
2023-03-21T19:46:20.985Z,13.70
2023-03-21T19:49:07.316Z,13.68
2023-03-21T19:51:53.048Z,13.66
2023-03-21T19:54:39.666Z,13.67
2023-03-21T19:57:25.689Z,13.64
2023-03-21T20:00:11.892Z,13.58
2023-03-21T20:02:57.553Z,13.62
2023-03-21T20:05:43.652Z,13.55
2023-03-21T20:08:42.846Z,13.58
2023-03-21T20:11:36.035Z,13.53
2023-03-21T20:14:22.017Z,13.54
2023-03-21T20:17:08.376Z,13.51
2023-03-21T20:19:57.929Z,13.51
2023-03-21T20:25:50.914Z,13.47
2023-03-21T20:28:38.142Z,13.46
2023-03-21T20:31:25.150Z,13.48
2023-03-21T20:34:11.688Z,13.44
2023-03-21T20:36:58.326Z,13.46
2023-03-21T20:39:44.498Z,13.45
2023-03-21T20:42:30.183Z,13.43
2023-03-21T20:45:18.661Z,13.47
2023-03-21T20:48:06.553Z,13.48
2023-03-21T20:50:57.855Z,13.48
2023-03-21T20:53:47.974Z,13.44
2023-03-21T20:56:33.668Z,13.47
2023-03-21T20:59:26.488Z,13.45
2023-03-21T21:02:13.901Z,13.42
2023-03-21T21:05:27.738Z,13.37
2023-03-21T21:08:19.206Z,13.37
2023-03-21T21:14:12.722Z,13.32
2023-03-21T21:17:02.662Z,13.31
2023-03-21T21:19:54.527Z,13.31
2023-03-21T21:22:42.895Z,13.28
2023-03-21T21:25:33.390Z,13.23
2023-03-21T21:28:21.312Z,13.20
2023-03-21T21:31:12.409Z,13.15
2023-03-21T21:33:59.857Z,13.06
2023-03-21T21:36:48.092Z,13.04
2023-03-21T21:39:35.287Z,13.02
2023-03-21T21:42:21.599Z,12.98
2023-03-21T21:45:09.466Z,12.96
2023-03-21T21:47:55.842Z,12.93
2023-03-21T21:50:42.625Z,12.92
2023-03-21T21:53:29.145Z,12.92
2023-03-21T21:56:14.929Z,12.91
2023-03-21T21:59:03.523Z,12.92
2023-03-21T22:01:51.431Z,12.90
2023-03-21T22:04:37.475Z,12.86
2023-03-21T22:07:27.422Z,12.89
2023-03-21T22:10:13.668Z,12.89
2023-03-21T22:13:00.017Z,12.87
2023-03-21T22:15:46.813Z,12.86
2023-03-21T22:18:36.165Z,12.84
2023-03-21T22:21:22.062Z,12.80
2023-03-21T22:24:08.027Z,12.78
2023-03-21T22:26:58.136Z,12.78
2023-03-21T22:29:44.186Z,12.77
2023-03-21T22:32:33.310Z,12.75
2023-03-21T22:35:19.291Z,12.74
2023-03-21T22:38:05.171Z,12.73
2023-03-21T22:40:58.728Z,12.71
2023-03-21T22:43:44.412Z,12.71
2023-03-21T22:46:30.110Z,12.71
2023-03-21T22:49:16.325Z,12.67
2023-03-21T22:52:03.423Z,12.67
2023-03-21T22:54:49.934Z,12.67
2023-03-21T22:57:36.032Z,12.69
2023-03-21T23:00:21.977Z,12.71
2023-03-21T23:03:07.603Z,12.68
2023-03-21T23:05:56.333Z,12.69
2023-03-21T23:08:42.441Z,12.69
2023-03-21T23:11:28.200Z,12.69
2023-03-21T23:14:15.348Z,12.64
2023-03-21T23:17:02.718Z,12.65
2023-03-21T23:19:48.749Z,12.59
2023-03-21T23:22:35.552Z,12.57
2023-03-21T23:25:22.048Z,12.51
2023-03-21T23:28:08.363Z,12.49
2023-03-21T23:30:55.023Z,12.46
2023-03-21T23:33:40.952Z,12.44
2023-03-21T23:36:26.959Z,12.40
2023-03-21T23:39:12.988Z,12.37
2023-03-21T23:41:58.825Z,12.33
2023-03-21T23:44:44.845Z,12.31
2023-03-21T23:47:31.200Z,12.24
2023-03-21T23:50:17.116Z,12.21
2023-03-21T23:53:02.772Z,12.16
2023-03-21T23:55:52.029Z,12.14
2023-03-21T23:58:37.762Z,12.10
